sensor_id;sensor_type;location;lat;lon;timestamp;pressure;altitude;pressure_sealevel;temperature;humidity
79527;BME280;68974;47.754;-3.364;2023-07-20T00:01:21;101881.66;;;17.10;68.08
79527;BME280;68974;47.754;-3.364;2023-07-20T00:03:46;101876.66;;;17.07;68.09
79527;BME280;68974;47.754;-3.364;2023-07-20T00:06:26;101872.72;;;17.13;67.88
79527;BME280;68974;47.754;-3.364;2023-07-20T00:08:53;101876.09;;;17.10;67.71
79527;BME280;68974;47.754;-3.364;2023-07-20T00:11:19;101870.06;;;17.03;67.80
79527;BME280;68974;47.754;-3.364;2023-07-20T00:13:44;101862.09;;;16.73;69.19
79527;BME280;68974;47.754;-3.364;2023-07-20T00:16:10;101865.88;;;16.82;68.73
79527;BME280;68974;47.754;-3.364;2023-07-20T00:18:35;101863.09;;;16.82;68.97
79527;BME280;68974;47.754;-3.364;2023-07-20T00:21:00;101859.63;;;16.71;68.84
79527;BME280;68974;47.754;-3.364;2023-07-20T00:23:27;101863.09;;;16.82;69.00
79527;BME280;68974;47.754;-3.364;2023-07-20T00:25:52;101868.84;;;16.91;68.55
79527;BME280;68974;47.754;-3.364;2023-07-20T00:28:18;101865.75;;;16.92;68.77
79527;BME280;68974;47.754;-3.364;2023-07-20T00:30:43;101865.81;;;16.87;68.69
79527;BME280;68974;47.754;-3.364;2023-07-20T00:33:10;101864.94;;;16.68;69.17
79527;BME280;68974;47.754;-3.364;2023-07-20T00:35:36;101870.91;;;16.80;69.24
79527;BME280;68974;47.754;-3.364;2023-07-20T00:38:03;101861.00;;;16.74;68.83
79527;BME280;68974;47.754;-3.364;2023-07-20T00:40:28;101866.31;;;16.70;69.21
79527;BME280;68974;47.754;-3.364;2023-07-20T00:42:54;101869.72;;;16.62;69.10
79527;BME280;68974;47.754;-3.364;2023-07-20T00:45:19;101867.31;;;16.51;69.63
79527;BME280;68974;47.754;-3.364;2023-07-20T00:47:45;101869.13;;;16.65;69.32
79527;BME280;68974;47.754;-3.364;2023-07-20T00:50:10;101866.88;;;16.67;69.40
79527;BME280;68974;47.754;-3.364;2023-07-20T00:52:37;101856.16;;;16.61;69.36
79527;BME280;68974;47.754;-3.364;2023-07-20T00:55:07;101863.59;;;16.65;69.35
79527;BME280;68974;47.754;-3.364;2023-07-20T00:57:32;101860.03;;;16.60;69.53
79527;BME280;68974;47.754;-3.364;2023-07-20T00:59:58;101850.50;;;16.71;69.17
79527;BME280;68974;47.754;-3.364;2023-07-20T01:02:24;101861.16;;;16.59;69.87
79527;BME280;68974;47.754;-3.364;2023-07-20T01:04:49;101864.56;;;16.51;69.50
79527;BME280;68974;47.754;-3.364;2023-07-20T01:07:26;101856.66;;;16.34;70.31
79527;BME280;68974;47.754;-3.364;2023-07-20T01:10:17;101864.09;;;16.38;70.28
79527;BME280;68974;47.754;-3.364;2023-07-20T01:12:52;101859.88;;;16.46;69.81
79527;BME280;68974;47.754;-3.364;2023-07-20T01:15:17;101852.41;;;16.46;70.04
79527;BME280;68974;47.754;-3.364;2023-07-20T01:17:42;101854.03;;;16.47;70.04
79527;BME280;68974;47.754;-3.364;2023-07-20T01:20:15;101847.66;;;16.47;69.68
79527;BME280;68974;47.754;-3.364;2023-07-20T01:28:40;101844.06;;;16.46;69.95
79527;BME280;68974;47.754;-3.364;2023-07-20T01:31:21;101849.63;;;16.46;69.77
79527;BME280;68974;47.754;-3.364;2023-07-20T01:33:50;101840.16;;;16.47;69.92
79527;BME280;68974;47.754;-3.364;2023-07-20T01:36:19;101840.75;;;16.44;69.90
79527;BME280;68974;47.754;-3.364;2023-07-20T01:38:46;101843.03;;;16.37;69.91
79527;BME280;68974;47.754;-3.364;2023-07-20T01:41:13;101846.28;;;16.21;70.66
79527;BME280;68974;47.754;-3.364;2023-07-20T01:43:39;101844.56;;;16.25;70.47
79527;BME280;68974;47.754;-3.364;2023-07-20T01:46:05;101843.91;;;16.33;70.72
79527;BME280;68974;47.754;-3.364;2023-07-20T01:48:31;101836.44;;;16.33;70.25
79527;BME280;68974;47.754;-3.364;2023-07-20T01:50:56;101836.97;;;16.35;70.03
79527;BME280;68974;47.754;-3.364;2023-07-20T01:53:22;101837.91;;;16.26;70.43
79527;BME280;68974;47.754;-3.364;2023-07-20T01:55:48;101842.03;;;16.28;70.36
79527;BME280;68974;47.754;-3.364;2023-07-20T01:58:13;101837.72;;;16.17;70.60
79527;BME280;68974;47.754;-3.364;2023-07-20T02:00:38;101840.44;;;16.22;70.42
79527;BME280;68974;47.754;-3.364;2023-07-20T02:03:04;101831.03;;;16.18;70.63
79527;BME280;68974;47.754;-3.364;2023-07-20T02:05:30;101834.94;;;16.17;70.80
79527;BME280;68974;47.754;-3.364;2023-07-20T02:07:55;101820.44;;;16.25;70.62
79527;BME280;68974;47.754;-3.364;2023-07-20T02:10:21;101830.69;;;16.25;70.50
79527;BME280;68974;47.754;-3.364;2023-07-20T02:12:46;101830.75;;;16.20;70.78
79527;BME280;68974;47.754;-3.364;2023-07-20T02:15:13;101823.03;;;16.17;70.59
79527;BME280;68974;47.754;-3.364;2023-07-20T02:17:39;101817.63;;;16.30;70.42
79527;BME280;68974;47.754;-3.364;2023-07-20T02:20:07;101816.56;;;16.26;70.44
79527;BME280;68974;47.754;-3.364;2023-07-20T02:22:37;101814.41;;;16.18;70.71
79527;BME280;68974;47.754;-3.364;2023-07-20T02:25:06;101814.34;;;16.23;70.34
79527;BME280;68974;47.754;-3.364;2023-07-20T02:27:35;101811.69;;;16.13;70.48
79527;BME280;68974;47.754;-3.364;2023-07-20T02:30:02;101814.91;;;15.96;71.27
79527;BME280;68974;47.754;-3.364;2023-07-20T02:32:28;101803.28;;;15.94;71.12
79527;BME280;68974;47.754;-3.364;2023-07-20T02:34:53;101798.03;;;15.93;71.63
79527;BME280;68974;47.754;-3.364;2023-07-20T02:37:19;101804.00;;;16.05;71.31
79527;BME280;68974;47.754;-3.364;2023-07-20T02:39:44;101799.63;;;15.99;71.20
79527;BME280;68974;47.754;-3.364;2023-07-20T02:42:09;101800.69;;;16.03;70.96
79527;BME280;68974;47.754;-3.364;2023-07-20T02:44:35;101796.47;;;16.11;70.73
79527;BME280;68974;47.754;-3.364;2023-07-20T02:47:00;101809.56;;;16.05;70.79
79527;BME280;68974;47.754;-3.364;2023-07-20T02:49:26;101809.50;;;15.81;71.50
79527;BME280;68974;47.754;-3.364;2023-07-20T02:51:52;101813.38;;;15.80;71.58
79527;BME280;68974;47.754;-3.364;2023-07-20T02:54:17;101804.88;;;15.72;71.84
79527;BME280;68974;47.754;-3.364;2023-07-20T02:56:43;101802.81;;;15.53;72.46
79527;BME280;68974;47.754;-3.364;2023-07-20T02:59:08;101803.91;;;15.52;72.46
79527;BME280;68974;47.754;-3.364;2023-07-20T03:01:34;101805.22;;;15.60;72.51
79527;BME280;68974;47.754;-3.364;2023-07-20T03:03:59;101800.88;;;15.49;72.87
79527;BME280;68974;47.754;-3.364;2023-07-20T03:06:24;101806.09;;;15.55;72.62
79527;BME280;68974;47.754;-3.364;2023-07-20T03:08:50;101801.56;;;15.70;72.49
79527;BME280;68974;47.754;-3.364;2023-07-20T03:11:19;101804.63;;;15.68;72.24
79527;BME280;68974;47.754;-3.364;2023-07-20T03:13:46;101794.66;;;15.67;72.23
79527;BME280;68974;47.754;-3.364;2023-07-20T03:16:13;101800.25;;;15.62;72.23
79527;BME280;68974;47.754;-3.364;2023-07-20T03:18:44;101804.94;;;15.62;71.84
79527;BME280;68974;47.754;-3.364;2023-07-20T03:21:10;101794.31;;;15.74;72.00
79527;BME280;68974;47.754;-3.364;2023-07-20T03:23:40;101798.75;;;15.75;71.78
79527;BME280;68974;47.754;-3.364;2023-07-20T03:26:06;101796.28;;;15.73;71.92
79527;BME280;68974;47.754;-3.364;2023-07-20T03:28:36;101792.97;;;15.71;71.75
79527;BME280;68974;47.754;-3.364;2023-07-20T03:31:01;101800.44;;;15.71;71.99
79527;BME280;68974;47.754;-3.364;2023-07-20T03:33:29;101797.63;;;15.76;71.77
79527;BME280;68974;47.754;-3.364;2023-07-20T03:35:55;101805.44;;;15.69;71.65
79527;BME280;68974;47.754;-3.364;2023-07-20T03:38:22;101795.44;;;15.73;71.95
79527;BME280;68974;47.754;-3.364;2023-07-20T03:40:55;101789.91;;;15.73;71.58
79527;BME280;68974;47.754;-3.364;2023-07-20T03:43:22;101789.91;;;15.73;71.97
79527;BME280;68974;47.754;-3.364;2023-07-20T03:45:47;101781.06;;;15.71;71.83
79527;BME280;68974;47.754;-3.364;2023-07-20T03:48:17;101790.19;;;15.71;72.17
79527;BME280;68974;47.754;-3.364;2023-07-20T03:50:47;101790.44;;;15.75;72.11
79527;BME280;68974;47.754;-3.364;2023-07-20T03:53:13;101795.97;;;15.75;71.83
79527;BME280;68974;47.754;-3.364;2023-07-20T03:55:39;101795.66;;;15.81;71.71
79527;BME280;68974;47.754;-3.364;2023-07-20T03:58:08;101803.97;;;15.81;72.14
79527;BME280;68974;47.754;-3.364;2023-07-20T04:00:34;101794.63;;;15.72;72.38
79527;BME280;68974;47.754;-3.364;2023-07-20T04:03:00;101793.78;;;15.72;72.41
79527;BME280;68974;47.754;-3.364;2023-07-20T04:05:26;101800.41;;;15.76;72.48
79527;BME280;68974;47.754;-3.364;2023-07-20T04:07:51;101788.72;;;15.79;72.34
79527;BME280;68974;47.754;-3.364;2023-07-20T04:10:17;101790.38;;;15.80;72.48
79527;BME280;68974;47.754;-3.364;2023-07-20T04:12:43;101787.38;;;15.76;72.22
79527;BME280;68974;47.754;-3.364;2023-07-20T04:15:09;101787.19;;;15.68;72.57
79527;BME280;68974;47.754;-3.364;2023-07-20T04:17:35;101793.88;;;15.62;72.29
79527;BME280;68974;47.754;-3.364;2023-07-20T04:20:00;101790.56;;;15.59;72.59
79527;BME280;68974;47.754;-3.364;2023-07-20T04:22:26;101786.03;;;15.69;72.33
79527;BME280;68974;47.754;-3.364;2023-07-20T04:24:52;101792.72;;;15.68;72.39
79527;BME280;68974;47.754;-3.364;2023-07-20T04:27:17;101789.31;;;15.76;72.19
79527;BME280;68974;47.754;-3.364;2023-07-20T04:29:43;101790.44;;;15.75;71.77
79527;BME280;68974;47.754;-3.364;2023-07-20T04:32:08;101791.09;;;15.62;72.25
79527;BME280;68974;47.754;-3.364;2023-07-20T04:34:34;101786.19;;;15.53;72.63
79527;BME280;68974;47.754;-3.364;2023-07-20T04:37:03;101795.53;;;15.63;72.47
79527;BME280;68974;47.754;-3.364;2023-07-20T04:39:28;101784.97;;;15.65;72.25
79527;BME280;68974;47.754;-3.364;2023-07-20T04:41:54;101777.44;;;15.70;71.94
79527;BME280;68974;47.754;-3.364;2023-07-20T04:44:19;101774.97;;;15.69;72.25
79527;BME280;68974;47.754;-3.364;2023-07-20T04:46:44;101769.66;;;15.77;71.92
79527;BME280;68974;47.754;-3.364;2023-07-20T04:49:10;101771.03;;;15.75;71.51
79527;BME280;68974;47.754;-3.364;2023-07-20T04:51:38;101769.97;;;15.71;71.90
79527;BME280;68974;47.754;-3.364;2023-07-20T04:54:03;101760.31;;;15.68;71.73
79527;BME280;68974;47.754;-3.364;2023-07-20T04:56:29;101758.16;;;15.60;72.03
79527;BME280;68974;47.754;-3.364;2023-07-20T04:58:54;101752.59;;;15.60;72.10
79527;BME280;68974;47.754;-3.364;2023-07-20T05:01:20;101748.44;;;15.63;72.26
79527;BME280;68974;47.754;-3.364;2023-07-20T05:03:45;101748.44;;;15.63;72.41
79527;BME280;68974;47.754;-3.364;2023-07-20T05:06:10;101746.19;;;15.65;72.44
79527;BME280;68974;47.754;-3.364;2023-07-20T05:08:36;101747.03;;;15.65;72.15
79527;BME280;68974;47.754;-3.364;2023-07-20T05:11:01;101755.09;;;15.62;72.57
79527;BME280;68974;47.754;-3.364;2023-07-20T05:13:27;101753.44;;;15.60;72.70
79527;BME280;68974;47.754;-3.364;2023-07-20T05:15:53;101758.50;;;15.53;72.67
79527;BME280;68974;47.754;-3.364;2023-07-20T05:18:19;101747.91;;;15.60;72.44
79527;BME280;68974;47.754;-3.364;2023-07-20T05:20:46;101754.53;;;15.59;72.86
79527;BME280;68974;47.754;-3.364;2023-07-20T05:23:11;101749.84;;;15.60;72.75
79527;BME280;68974;47.754;-3.364;2023-07-20T05:25:37;101749.84;;;15.60;72.76
79527;BME280;68974;47.754;-3.364;2023-07-20T05:28:02;101741.28;;;15.56;72.76
79527;BME280;68974;47.754;-3.364;2023-07-20T05:30:27;101740.47;;;15.56;72.68
79527;BME280;68974;47.754;-3.364;2023-07-20T05:32:54;101748.50;;;15.57;73.03
79527;BME280;68974;47.754;-3.364;2023-07-20T05:35:20;101741.88;;;15.53;73.07
79527;BME280;68974;47.754;-3.364;2023-07-20T05:37:45;101742.41;;;15.50;73.35
79527;BME280;68974;47.754;-3.364;2023-07-20T05:40:11;101745.50;;;15.49;73.23
79527;BME280;68974;47.754;-3.364;2023-07-20T05:42:38;101737.47;;;15.52;73.61
79527;BME280;68974;47.754;-3.364;2023-07-20T05:45:03;101731.09;;;15.52;73.41
79527;BME280;68974;47.754;-3.364;2023-07-20T05:47:29;101736.31;;;15.58;73.71
79527;BME280;68974;47.754;-3.364;2023-07-20T05:49:54;101744.25;;;15.65;73.15
79527;BME280;68974;47.754;-3.364;2023-07-20T05:52:19;101741.72;;;15.69;72.97
79527;BME280;68974;47.754;-3.364;2023-07-20T05:54:45;101753.34;;;15.71;73.18
79527;BME280;68974;47.754;-3.364;2023-07-20T05:57:10;101749.72;;;15.75;72.91
79527;BME280;68974;47.754;-3.364;2023-07-20T05:59:36;101751.84;;;15.83;72.89
79527;BME280;68974;47.754;-3.364;2023-07-20T06:02:01;101746.56;;;15.87;72.18
79527;BME280;68974;47.754;-3.364;2023-07-20T06:04:27;101745.88;;;15.71;72.30
79527;BME280;68974;47.754;-3.364;2023-07-20T06:06:52;101738.84;;;15.79;72.66
79527;BME280;68974;47.754;-3.364;2023-07-20T06:09:18;101743.75;;;15.92;72.23
79527;BME280;68974;47.754;-3.364;2023-07-20T06:11:43;101740.91;;;15.97;72.35
79527;BME280;68974;47.754;-3.364;2023-07-20T06:14:08;101746.41;;;16.02;71.93
79527;BME280;68974;47.754;-3.364;2023-07-20T06:16:34;101750.25;;;16.06;71.65
79527;BME280;68974;47.754;-3.364;2023-07-20T06:19:00;101745.75;;;16.10;71.43
79527;BME280;68974;47.754;-3.364;2023-07-20T06:21:25;101749.81;;;16.18;71.37
79527;BME280;68974;47.754;-3.364;2023-07-20T06:23:51;101751.28;;;16.10;71.72
79527;BME280;68974;47.754;-3.364;2023-07-20T06:26:16;101750.69;;;16.13;71.45
79527;BME280;68974;47.754;-3.364;2023-07-20T06:28:41;101755.63;;;16.21;71.60
79527;BME280;68974;47.754;-3.364;2023-07-20T06:31:07;101747.75;;;16.28;71.13
79527;BME280;68974;47.754;-3.364;2023-07-20T06:33:32;101743.16;;;16.42;70.62
79527;BME280;68974;47.754;-3.364;2023-07-20T06:35:57;101750.34;;;16.43;70.35
79527;BME280;68974;47.754;-3.364;2023-07-20T06:38:23;101751.66;;;16.51;70.58
79527;BME280;68974;47.754;-3.364;2023-07-20T06:40:51;101752.78;;;16.50;70.56
79527;BME280;68974;47.754;-3.364;2023-07-20T06:43:17;101753.81;;;16.59;70.21
79527;BME280;68974;47.754;-3.364;2023-07-20T06:45:43;101759.06;;;16.61;70.29
79527;BME280;68974;47.754;-3.364;2023-07-20T06:48:08;101762.28;;;16.68;69.85
79527;BME280;68974;47.754;-3.364;2023-07-20T06:50:34;101756.66;;;16.73;69.67
79527;BME280;68974;47.754;-3.364;2023-07-20T06:53:00;101756.53;;;16.83;69.49
79527;BME280;68974;47.754;-3.364;2023-07-20T06:55:28;101759.16;;;16.93;68.64
79527;BME280;68974;47.754;-3.364;2023-07-20T06:57:53;101764.03;;;17.01;68.84
79527;BME280;68974;47.754;-3.364;2023-07-20T07:00:19;101763.38;;;17.09;68.14
79527;BME280;68974;47.754;-3.364;2023-07-20T07:02:45;101761.59;;;17.18;68.22
79527;BME280;68974;47.754;-3.364;2023-07-20T07:05:10;101764.66;;;17.17;68.03
79527;BME280;68974;47.754;-3.364;2023-07-20T07:07:35;101759.31;;;17.20;67.99
79527;BME280;68974;47.754;-3.364;2023-07-20T07:10:01;101762.63;;;17.22;68.34
79527;BME280;68974;47.754;-3.364;2023-07-20T07:12:30;101756.31;;;17.36;71.00
79527;BME280;68974;47.754;-3.364;2023-07-20T07:14:55;101759.81;;;17.60;70.69
79527;BME280;68974;47.754;-3.364;2023-07-20T07:17:20;101748.28;;;17.85;69.44
79527;BME280;68974;47.754;-3.364;2023-07-20T07:19:46;101747.38;;;18.03;67.12
79527;BME280;68974;47.754;-3.364;2023-07-20T07:22:11;101747.72;;;18.15;67.46
79527;BME280;68974;47.754;-3.364;2023-07-20T07:24:36;101746.38;;;18.40;66.21
79527;BME280;68974;47.754;-3.364;2023-07-20T07:27:02;101749.25;;;18.49;64.99
79527;BME280;68974;47.754;-3.364;2023-07-20T07:29:30;101751.22;;;18.48;64.08
79527;BME280;68974;47.754;-3.364;2023-07-20T07:31:55;101752.88;;;18.36;64.80
79527;BME280;68974;47.754;-3.364;2023-07-20T07:34:21;101756.47;;;18.36;65.03
79527;BME280;68974;47.754;-3.364;2023-07-20T07:36:46;101750.91;;;18.36;65.12
79527;BME280;68974;47.754;-3.364;2023-07-20T07:39:12;101755.56;;;18.27;65.16
79527;BME280;68974;47.754;-3.364;2023-07-20T07:41:37;101746.69;;;18.11;65.85
79527;BME280;68974;47.754;-3.364;2023-07-20T07:44:03;101739.03;;;18.03;66.30
79527;BME280;68974;47.754;-3.364;2023-07-20T07:46:28;101756.94;;;17.84;66.58
79527;BME280;68974;47.754;-3.364;2023-07-20T07:48:54;101747.59;;;17.93;66.96
79527;BME280;68974;47.754;-3.364;2023-07-20T07:51:19;101750.47;;;17.88;67.27
79527;BME280;68974;47.754;-3.364;2023-07-20T07:53:46;101744.19;;;17.96;66.48
79527;BME280;68974;47.754;-3.364;2023-07-20T07:56:11;101734.63;;;18.02;66.99
79527;BME280;68974;47.754;-3.364;2023-07-20T07:58:37;101744.94;;;18.15;66.25
79527;BME280;68974;47.754;-3.364;2023-07-20T08:01:03;101742.56;;;18.23;67.43
79527;BME280;68974;47.754;-3.364;2023-07-20T08:03:29;101738.06;;;18.54;66.21
79527;BME280;68974;47.754;-3.364;2023-07-20T08:05:54;101736.38;;;18.80;64.74
79527;BME280;68974;47.754;-3.364;2023-07-20T08:08:25;101730.13;;;18.97;63.64
79527;BME280;68974;47.754;-3.364;2023-07-20T08:10:53;101733.31;;;19.04;63.46
79527;BME280;68974;47.754;-3.364;2023-07-20T08:13:20;101738.38;;;19.02;63.78
79527;BME280;68974;47.754;-3.364;2023-07-20T08:15:49;101726.53;;;19.77;62.40
79527;BME280;68974;47.754;-3.364;2023-07-20T08:18:16;101731.69;;;20.23;59.67
79527;BME280;68974;47.754;-3.364;2023-07-20T08:20:44;101720.00;;;20.60;58.96
79527;BME280;68974;47.754;-3.364;2023-07-20T08:23:10;101722.53;;;20.96;57.32
79527;BME280;68974;47.754;-3.364;2023-07-20T08:25:39;101729.63;;;21.28;57.23
79527;BME280;68974;47.754;-3.364;2023-07-20T08:28:07;101719.59;;;21.44;55.53
79527;BME280;68974;47.754;-3.364;2023-07-20T08:30:44;101721.88;;;21.42;56.26
79527;BME280;68974;47.754;-3.364;2023-07-20T08:33:10;101715.31;;;21.38;55.95
79527;BME280;68974;47.754;-3.364;2023-07-20T08:35:36;101721.38;;;21.49;55.56
79527;BME280;68974;47.754;-3.364;2023-07-20T08:38:02;101722.22;;;21.49;55.34
79527;BME280;68974;47.754;-3.364;2023-07-20T08:40:30;101718.34;;;21.88;54.51
79527;BME280;68974;47.754;-3.364;2023-07-20T08:42:56;101713.06;;;22.33;53.14
79527;BME280;68974;47.754;-3.364;2023-07-20T08:45:25;101714.09;;;22.58;52.51
79527;BME280;68974;47.754;-3.364;2023-07-20T08:47:51;101718.97;;;22.40;51.53
79527;BME280;68974;47.754;-3.364;2023-07-20T08:50:16;101724.09;;;21.92;53.64
79527;BME280;68974;47.754;-3.364;2023-07-20T08:52:42;101726.44;;;21.73;54.69
79527;BME280;68974;47.754;-3.364;2023-07-20T08:55:07;101730.88;;;21.65;54.25
79527;BME280;68974;47.754;-3.364;2023-07-20T08:57:34;101715.09;;;21.60;54.41
79527;BME280;68974;47.754;-3.364;2023-07-20T09:00:03;101721.03;;;21.50;54.98
79527;BME280;68974;47.754;-3.364;2023-07-20T09:02:38;101726.66;;;21.42;54.90
79527;BME280;68974;47.754;-3.364;2023-07-20T09:05:06;101725.47;;;21.08;54.37
79527;BME280;68974;47.754;-3.364;2023-07-20T09:07:33;101727.78;;;20.98;56.41
79527;BME280;68974;47.754;-3.364;2023-07-20T09:10:00;101732.88;;;20.96;56.61
79527;BME280;68974;47.754;-3.364;2023-07-20T09:12:31;101735.00;;;20.99;56.29
79527;BME280;68974;47.754;-3.364;2023-07-20T09:14:57;101733.03;;;21.08;55.81
79527;BME280;68974;47.754;-3.364;2023-07-20T09:17:25;101734.06;;;21.29;55.23
79527;BME280;68974;47.754;-3.364;2023-07-20T09:19:51;101732.41;;;21.54;53.71
79527;BME280;68974;47.754;-3.364;2023-07-20T09:22:16;101736.41;;;21.99;53.86
79527;BME280;68974;47.754;-3.364;2023-07-20T09:24:43;101737.84;;;22.14;53.12
79527;BME280;68974;47.754;-3.364;2023-07-20T09:27:09;101739.09;;;22.34;51.75
79527;BME280;68974;47.754;-3.364;2023-07-20T09:29:48;101733.47;;;22.42;51.26
79527;BME280;68974;47.754;-3.364;2023-07-20T09:32:18;101733.66;;;22.67;50.75
79527;BME280;68974;47.754;-3.364;2023-07-20T09:34:44;101741.69;;;22.68;49.45
79527;BME280;68974;47.754;-3.364;2023-07-20T09:37:10;101733.50;;;22.63;50.28
79527;BME280;68974;47.754;-3.364;2023-07-20T09:39:45;101737.03;;;22.52;50.79
79527;BME280;68974;47.754;-3.364;2023-07-20T09:42:14;101739.19;;;22.46;50.83
79527;BME280;68974;47.754;-3.364;2023-07-20T09:44:40;101724.97;;;22.89;50.53
79527;BME280;68974;47.754;-3.364;2023-07-20T09:47:08;101730.56;;;23.51;48.71
79527;BME280;68974;47.754;-3.364;2023-07-20T09:49:41;101712.81;;;23.92;47.10
79527;BME280;68974;47.754;-3.364;2023-07-20T09:52:08;101704.22;;;24.22;45.67
79527;BME280;68974;47.754;-3.364;2023-07-20T09:54:37;101712.84;;;24.77;44.78
79527;BME280;68974;47.754;-3.364;2023-07-20T09:57:02;101714.81;;;25.01;44.17
79527;BME280;68974;47.754;-3.364;2023-07-20T09:59:28;101708.38;;;25.00;44.33
79527;BME280;68974;47.754;-3.364;2023-07-20T10:01:58;101711.50;;;25.11;44.10
79527;BME280;68974;47.754;-3.364;2023-07-20T10:04:25;101705.88;;;25.39;42.77
79527;BME280;68974;47.754;-3.364;2023-07-20T10:06:52;101709.47;;;25.24;41.28
79527;BME280;68974;47.754;-3.364;2023-07-20T10:09:21;101707.78;;;25.35;42.00
79527;BME280;68974;47.754;-3.364;2023-07-20T10:11:50;101708.69;;;25.39;41.31
79527;BME280;68974;47.754;-3.364;2023-07-20T10:14:20;101703.09;;;25.27;39.66
79527;BME280;68974;47.754;-3.364;2023-07-20T10:16:55;101699.63;;;25.18;39.22
79527;BME280;68974;47.754;-3.364;2023-07-20T10:19:26;101706.13;;;25.34;39.28
79527;BME280;68974;47.754;-3.364;2023-07-20T10:22:15;101702.59;;;25.09;39.61
79527;BME280;68974;47.754;-3.364;2023-07-20T10:24:45;101696.41;;;25.03;40.25
79527;BME280;68974;47.754;-3.364;2023-07-20T10:27:11;101695.16;;;24.89;39.94
79527;BME280;68974;47.754;-3.364;2023-07-20T10:29:36;101699.97;;;24.64;42.38
79527;BME280;68974;47.754;-3.364;2023-07-20T10:32:03;101691.56;;;24.40;42.88
79527;BME280;68974;47.754;-3.364;2023-07-20T10:34:29;101691.09;;;24.26;42.88
79527;BME280;68974;47.754;-3.364;2023-07-20T10:36:54;101692.25;;;24.49;42.28
79527;BME280;68974;47.754;-3.364;2023-07-20T10:39:24;101686.88;;;24.56;42.32
79527;BME280;68974;47.754;-3.364;2023-07-20T10:42:08;101680.91;;;24.57;41.58
79527;BME280;68974;47.754;-3.364;2023-07-20T10:44:37;101676.44;;;24.69;41.23
79527;BME280;68974;47.754;-3.364;2023-07-20T10:47:07;101670.44;;;24.82;41.32
79527;BME280;68974;47.754;-3.364;2023-07-20T10:49:35;101671.91;;;25.16;41.12
79527;BME280;68974;47.754;-3.364;2023-07-20T10:52:04;101670.56;;;25.26;39.95
79527;BME280;68974;47.754;-3.364;2023-07-20T10:57:22;101657.09;;;26.22;38.44
79527;BME280;68974;47.754;-3.364;2023-07-20T10:59:48;101665.09;;;26.55;38.94
79527;BME280;68974;47.754;-3.364;2023-07-20T11:02:17;101656.44;;;26.98;38.05
79527;BME280;68974;47.754;-3.364;2023-07-20T11:04:45;101658.75;;;27.31;36.06
79527;BME280;68974;47.754;-3.364;2023-07-20T11:07:17;101665.59;;;27.11;35.94
79527;BME280;68974;47.754;-3.364;2023-07-20T11:09:43;101660.72;;;26.38;36.89
79527;BME280;68974;47.754;-3.364;2023-07-20T11:12:18;101662.25;;;26.70;37.77
79527;BME280;68974;47.754;-3.364;2023-07-20T11:14:56;101661.56;;;26.58;37.07
79527;BME280;68974;47.754;-3.364;2023-07-20T11:17:32;101649.47;;;26.57;37.14
79527;BME280;68974;47.754;-3.364;2023-07-20T11:19:59;101648.75;;;26.80;37.04
79527;BME280;68974;47.754;-3.364;2023-07-20T11:22:30;101645.09;;;26.60;36.67
79527;BME280;68974;47.754;-3.364;2023-07-20T11:24:56;101642.03;;;27.23;36.83
79527;BME280;68974;47.754;-3.364;2023-07-20T11:27:22;101630.97;;;26.76;37.45
79527;BME280;68974;47.754;-3.364;2023-07-20T11:29:48;101645.09;;;26.25;38.20
79527;BME280;68974;47.754;-3.364;2023-07-20T11:32:23;101643.63;;;25.68;38.51
79527;BME280;68974;47.754;-3.364;2023-07-20T11:34:49;101637.91;;;25.80;39.21
79527;BME280;68974;47.754;-3.364;2023-07-20T11:37:15;101625.75;;;26.58;37.50
79527;BME280;68974;47.754;-3.364;2023-07-20T11:39:41;101629.81;;;27.15;35.97
79527;BME280;68974;47.754;-3.364;2023-07-20T11:42:06;101626.63;;;27.17;37.14
79527;BME280;68974;47.754;-3.364;2023-07-20T11:44:32;101624.56;;;26.79;35.93
79527;BME280;68974;47.754;-3.364;2023-07-20T11:47:08;101623.69;;;27.32;35.21
79527;BME280;68974;47.754;-3.364;2023-07-20T11:49:44;101619.97;;;27.28;36.33
79527;BME280;68974;47.754;-3.364;2023-07-20T11:52:15;101622.53;;;27.14;35.47
79527;BME280;68974;47.754;-3.364;2023-07-20T11:54:42;101613.59;;;27.31;35.32
79527;BME280;68974;47.754;-3.364;2023-07-20T11:57:21;101608.97;;;27.42;34.93
79527;BME280;68974;47.754;-3.364;2023-07-20T11:59:57;101610.09;;;27.80;35.20
79527;BME280;68974;47.754;-3.364;2023-07-20T12:02:24;101604.50;;;27.83;35.24
79527;BME280;68974;47.754;-3.364;2023-07-20T12:04:51;101600.16;;;27.89;35.04
79527;BME280;68974;47.754;-3.364;2023-07-20T12:07:18;101588.69;;;27.79;35.88
79527;BME280;68974;47.754;-3.364;2023-07-20T12:09:44;101583.19;;;28.12;34.98
79527;BME280;68974;47.754;-3.364;2023-07-20T12:12:10;101584.50;;;28.18;33.56
79527;BME280;68974;47.754;-3.364;2023-07-20T12:14:39;101587.22;;;27.88;34.48
79527;BME280;68974;47.754;-3.364;2023-07-20T12:17:04;101585.63;;;27.65;34.81
79527;BME280;68974;47.754;-3.364;2023-07-20T12:19:38;101581.84;;;28.06;33.99
79527;BME280;68974;47.754;-3.364;2023-07-20T12:22:03;101576.56;;;27.78;33.79
79527;BME280;68974;47.754;-3.364;2023-07-20T12:24:29;101579.72;;;26.89;35.94
79527;BME280;68974;47.754;-3.364;2023-07-20T12:26:58;101582.75;;;27.19;35.36
79527;BME280;68974;47.754;-3.364;2023-07-20T12:29:24;101586.75;;;26.60;39.01
79527;BME280;68974;47.754;-3.364;2023-07-20T12:31:49;101579.88;;;25.92;41.10
79527;BME280;68974;47.754;-3.364;2023-07-20T12:34:14;101582.09;;;25.23;40.85
79527;BME280;68974;47.754;-3.364;2023-07-20T12:36:40;101580.06;;;25.08;42.89
79527;BME280;68974;47.754;-3.364;2023-07-20T12:39:05;101575.34;;;25.40;41.67
79527;BME280;68974;47.754;-3.364;2023-07-20T12:41:31;101574.22;;;26.07;39.84
79527;BME280;68974;47.754;-3.364;2023-07-20T12:43:56;101572.59;;;26.22;39.96
79527;BME280;68974;47.754;-3.364;2023-07-20T12:46:23;101568.00;;;25.98;40.48
79527;BME280;68974;47.754;-3.364;2023-07-20T12:48:49;101577.75;;;25.26;41.36